Impacts METAR Board
IDs:

KJFK - New York/Kennedy Int, NY, US

Updated at: 1300 UTC 07 Jul 2020
Potential Impact None Slight Moderate High
Time 07/01Z 07/02Z 07/03Z 07/04Z 07/05Z 07/06Z 07/07Z 07/08Z 07/09Z 07/10Z 07/11Z 07/12Z 07/13Z
Temp73 72 72 72 71 72 72 71 72 72 73 75 75
Dewpt70 69 68 68 68 69 69 68 69 69 69 70 69
Altim30.09 30.11 30.12 30.13 30.13 30.12 30.12 30.10 30.12 30.12 30.12 30.12 30.12
VIS10 10 10 10 10 10 10 10 10 10 10 10 10
CIG250 12 12 12 14 14 13 -- 21 18 16 24 21
CoverBKNBKNOVCOVCBKNBKNBKNSCTOVCBKNBKNBKNBKN
FltCatVFRMVFRMVFRMVFRMVFRMVFRMVFRVFRMVFRMVFRMVFRMVFRMVFR
WX--------------------------
WDir909090110100807010013010090100120
WSpd10 14 12 8 8 6 5 5 6 5 5 10 8
WGst-- -- -- -- -- -- -- -- -- -- -- -- --
Raw hourly METARs
KJFK 070051Z 09010KT 10SM SCT008 SCT080 SCT150 BKN250 23/21 A3009 RMK AO2 SLP188 T02280211
KJFK 070151Z 09014KT 10SM BKN012 BKN150 BKN250 22/21 A3011 RMK AO2 SLP195 T02220206
KJFK 070251Z 09012KT 10SM OVC012 22/20 A3012 RMK AO2 SLP198 T02220200 51015
KJFK 070351Z 11008KT 10SM OVC012 22/20 A3013 RMK AO2 SLP202 T02220200
KJFK 070451Z 10008KT 10SM BKN014 BKN150 22/20 A3013 RMK AO2 SLP203 T02170200 403280217
KJFK 070551Z 08006KT 10SM BKN014 22/21 A3012 RMK AO2 SLP200 T02220206 10233 20217 50002
KJFK 070651Z 07005KT 10SM BKN013 BKN025 22/21 A3012 RMK AO2 SLP198 T02220206
KJFK 070751Z 10005KT 10SM SCT013 22/20 A3010 RMK AO2 SLP192 T02170200
KJFK 070858Z 13006KT 10SM OVC021 22/21 A3012 RMK AO2 T02220206
KJFK 070951Z 10005KT 10SM BKN018 22/21 A3012 RMK AO2 SLP200 T02220206
KJFK 071051Z 09005KT 10SM BKN016 BKN043 23/21 A3012 RMK AO2 SLP200 T02280206
KJFK 071151Z 10010KT 10SM FEW014 BKN024 BKN043 24/21 A3012 RMK AO2 SLP198 70003 T02390211 10239 20217 50000
KJFK 071251Z 12008KT 10SM SCT013 BKN021 BKN180 24/21 A3012 RMK AO2 SLP198 SCT V BKN T02390206



Page loaded:  13:50 UTC  |   06:50 AM Pacific  |   07:50 AM Mountain  |   08:50 AM Central  |   09:50 AM Eastern

 

ADVISORIES

FORECASTS

FORECASTS

OBSERVATIONS

USER TOOLS

ABOUT US